sensor_id;sensor_type;location;lat;lon;timestamp;P1;durP1;ratioP1;P2;durP2;ratioP2
13303;SDS011;6720;51.958;4.540;2023-03-01T00:00:25;22.13;;;17.97;;
13303;SDS011;6720;51.958;4.540;2023-03-01T00:02:51;19.77;;;17.63;;
13303;SDS011;6720;51.958;4.540;2023-03-01T00:05:16;19.47;;;17.43;;
13303;SDS011;6720;51.958;4.540;2023-03-01T00:07:41;20.37;;;17.47;;
13303;SDS011;6720;51.958;4.540;2023-03-01T00:10:07;20.70;;;16.97;;
13303;SDS011;6720;51.958;4.540;2023-03-01T00:12:33;20.83;;;18.67;;
13303;SDS011;6720;51.958;4.540;2023-03-01T00:14:58;21.23;;;18.93;;
13303;SDS011;6720;51.958;4.540;2023-03-01T00:17:24;21.30;;;18.67;;
13303;SDS011;6720;51.958;4.540;2023-03-01T00:19:49;21.40;;;19.10;;
13303;SDS011;6720;51.958;4.540;2023-03-01T00:22:14;24.00;;;18.57;;
13303;SDS011;6720;51.958;4.540;2023-03-01T00:24:40;21.87;;;18.27;;
13303;SDS011;6720;51.958;4.540;2023-03-01T00:27:05;20.17;;;18.00;;
13303;SDS011;6720;51.958;4.540;2023-03-01T00:29:30;20.60;;;18.40;;
13303;SDS011;6720;51.958;4.540;2023-03-01T00:31:56;20.67;;;18.07;;
13303;SDS011;6720;51.958;4.540;2023-03-01T00:34:21;23.83;;;18.70;;
13303;SDS011;6720;51.958;4.540;2023-03-01T00:36:47;22.47;;;18.67;;
13303;SDS011;6720;51.958;4.540;2023-03-01T00:39:13;21.10;;;17.83;;
13303;SDS011;6720;51.958;4.540;2023-03-01T00:41:40;20.70;;;18.37;;
13303;SDS011;6720;51.958;4.540;2023-03-01T00:44:13;22.23;;;19.10;;
13303;SDS011;6720;51.958;4.540;2023-03-01T00:46:46;21.07;;;18.40;;
13303;SDS011;6720;51.958;4.540;2023-03-01T00:49:11;24.33;;;18.77;;
13303;SDS011;6720;51.958;4.540;2023-03-01T00:51:37;24.27;;;19.23;;
13303;SDS011;6720;51.958;4.540;2023-03-01T00:54:04;22.63;;;19.13;;
13303;SDS011;6720;51.958;4.540;2023-03-01T00:56:30;21.70;;;18.83;;
13303;SDS011;6720;51.958;4.540;2023-03-01T00:58:56;21.93;;;19.63;;
13303;SDS011;6720;51.958;4.540;2023-03-01T01:01:23;24.87;;;18.33;;
13303;SDS011;6720;51.958;4.540;2023-03-01T01:03:55;22.43;;;19.00;;
13303;SDS011;6720;51.958;4.540;2023-03-01T01:06:25;22.60;;;19.93;;
13303;SDS011;6720;51.958;4.540;2023-03-01T01:08:52;22.93;;;19.37;;
13303;SDS011;6720;51.958;4.540;2023-03-01T01:11:19;24.30;;;19.63;;
13303;SDS011;6720;51.958;4.540;2023-03-01T01:13:45;24.23;;;19.77;;
13303;SDS011;6720;51.958;4.540;2023-03-01T01:16:12;25.60;;;20.17;;
13303;SDS011;6720;51.958;4.540;2023-03-01T01:18:38;22.57;;;18.97;;
13303;SDS011;6720;51.958;4.540;2023-03-01T01:21:14;23.57;;;20.00;;
13303;SDS011;6720;51.958;4.540;2023-03-01T01:23:41;26.43;;;20.93;;
13303;SDS011;6720;51.958;4.540;2023-03-01T01:26:08;24.60;;;20.20;;
13303;SDS011;6720;51.958;4.540;2023-03-01T01:28:41;25.47;;;20.27;;
13303;SDS011;6720;51.958;4.540;2023-03-01T01:31:07;24.33;;;20.37;;
13303;SDS011;6720;51.958;4.540;2023-03-01T01:33:32;23.67;;;20.37;;
13303;SDS011;6720;51.958;4.540;2023-03-01T01:35:58;24.47;;;20.30;;
13303;SDS011;6720;51.958;4.540;2023-03-01T01:38:23;25.67;;;20.83;;
13303;SDS011;6720;51.958;4.540;2023-03-01T01:40:49;23.80;;;20.67;;
13303;SDS011;6720;51.958;4.540;2023-03-01T01:43:25;23.77;;;20.10;;
13303;SDS011;6720;51.958;4.540;2023-03-01T01:45:57;23.63;;;19.47;;
13303;SDS011;6720;51.958;4.540;2023-03-01T01:48:48;26.33;;;20.87;;
13303;SDS011;6720;51.958;4.540;2023-03-01T01:51:21;25.93;;;19.77;;
13303;SDS011;6720;51.958;4.540;2023-03-01T01:53:53;26.47;;;20.53;;
13303;SDS011;6720;51.958;4.540;2023-03-01T01:56:23;26.87;;;21.33;;
13303;SDS011;6720;51.958;4.540;2023-03-01T01:58:50;25.03;;;20.10;;
13303;SDS011;6720;51.958;4.540;2023-03-01T02:01:15;29.70;;;20.37;;
13303;SDS011;6720;51.958;4.540;2023-03-01T02:03:42;25.57;;;21.23;;
13303;SDS011;6720;51.958;4.540;2023-03-01T02:06:44;27.13;;;21.53;;
13303;SDS011;6720;51.958;4.540;2023-03-01T02:09:06;27.53;;;21.77;;
13303;SDS011;6720;51.958;4.540;2023-03-01T02:11:36;30.03;;;21.97;;
13303;SDS011;6720;51.958;4.540;2023-03-01T02:14:02;30.87;;;21.80;;
13303;SDS011;6720;51.958;4.540;2023-03-01T02:16:28;30.03;;;22.83;;
13303;SDS011;6720;51.958;4.540;2023-03-01T02:18:54;27.23;;;22.37;;
13303;SDS011;6720;51.958;4.540;2023-03-01T02:26:48;32.53;;;24.33;;
13303;SDS011;6720;51.958;4.540;2023-03-01T02:29:16;32.83;;;23.90;;
13303;SDS011;6720;51.958;4.540;2023-03-01T02:31:41;32.33;;;24.30;;
13303;SDS011;6720;51.958;4.540;2023-03-01T02:34:09;31.53;;;23.57;;
13303;SDS011;6720;51.958;4.540;2023-03-01T02:36:51;32.83;;;25.53;;
13303;SDS011;6720;51.958;4.540;2023-03-01T02:39:22;32.17;;;24.00;;
13303;SDS011;6720;51.958;4.540;2023-03-01T02:41:52;33.77;;;24.30;;
13303;SDS011;6720;51.958;4.540;2023-03-01T02:44:19;31.47;;;24.63;;
13303;SDS011;6720;51.958;4.540;2023-03-01T02:46:46;32.00;;;24.90;;
13303;SDS011;6720;51.958;4.540;2023-03-01T02:57:28;31.97;;;24.97;;
13303;SDS011;6720;51.958;4.540;2023-03-01T02:59:55;30.97;;;23.53;;
13303;SDS011;6720;51.958;4.540;2023-03-01T03:02:25;28.63;;;23.93;;
13303;SDS011;6720;51.958;4.540;2023-03-01T03:07:28;29.57;;;24.03;;
13303;SDS011;6720;51.958;4.540;2023-03-01T03:09:53;31.93;;;24.13;;
13303;SDS011;6720;51.958;4.540;2023-03-01T03:12:19;29.97;;;24.30;;
13303;SDS011;6720;51.958;4.540;2023-03-01T03:14:44;32.43;;;24.53;;
13303;SDS011;6720;51.958;4.540;2023-03-01T03:17:09;31.17;;;24.43;;
13303;SDS011;6720;51.958;4.540;2023-03-01T03:19:35;34.13;;;23.77;;
13303;SDS011;6720;51.958;4.540;2023-03-01T03:22:16;31.97;;;24.17;;
13303;SDS011;6720;51.958;4.540;2023-03-01T03:25:21;30.13;;;23.00;;
13303;SDS011;6720;51.958;4.540;2023-03-01T03:28:18;33.13;;;23.70;;
13303;SDS011;6720;51.958;4.540;2023-03-01T03:34:59;32.63;;;23.87;;
13303;SDS011;6720;51.958;4.540;2023-03-01T03:37:24;32.07;;;23.90;;
13303;SDS011;6720;51.958;4.540;2023-03-01T03:40:08;33.37;;;25.17;;
13303;SDS011;6720;51.958;4.540;2023-03-01T03:42:40;31.50;;;24.83;;
13303;SDS011;6720;51.958;4.540;2023-03-01T03:45:06;31.63;;;24.40;;
13303;SDS011;6720;51.958;4.540;2023-03-01T03:47:31;33.70;;;26.20;;
13303;SDS011;6720;51.958;4.540;2023-03-01T03:49:57;35.87;;;25.40;;
13303;SDS011;6720;51.958;4.540;2023-03-01T03:52:22;34.37;;;26.57;;
13303;SDS011;6720;51.958;4.540;2023-03-01T03:54:48;33.43;;;24.77;;
13303;SDS011;6720;51.958;4.540;2023-03-01T03:57:13;33.23;;;24.77;;
13303;SDS011;6720;51.958;4.540;2023-03-01T03:59:39;34.70;;;26.43;;
13303;SDS011;6720;51.958;4.540;2023-03-01T04:02:04;37.53;;;27.33;;
13303;SDS011;6720;51.958;4.540;2023-03-01T04:04:30;37.50;;;26.30;;
13303;SDS011;6720;51.958;4.540;2023-03-01T04:06:56;38.40;;;26.33;;
13303;SDS011;6720;51.958;4.540;2023-03-01T04:09:21;36.50;;;26.73;;
13303;SDS011;6720;51.958;4.540;2023-03-01T04:11:46;40.27;;;27.37;;
13303;SDS011;6720;51.958;4.540;2023-03-01T04:14:12;36.40;;;27.10;;
13303;SDS011;6720;51.958;4.540;2023-03-01T04:16:37;40.97;;;27.43;;
13303;SDS011;6720;51.958;4.540;2023-03-01T04:19:02;40.37;;;28.33;;
13303;SDS011;6720;51.958;4.540;2023-03-01T04:21:28;37.93;;;26.67;;
13303;SDS011;6720;51.958;4.540;2023-03-01T04:23:53;39.90;;;27.67;;
13303;SDS011;6720;51.958;4.540;2023-03-01T04:26:19;37.27;;;27.93;;
13303;SDS011;6720;51.958;4.540;2023-03-01T04:28:45;56.67;;;28.63;;
13303;SDS011;6720;51.958;4.540;2023-03-01T04:31:12;127.73;;;33.73;;
13303;SDS011;6720;51.958;4.540;2023-03-01T04:33:41;243.30;;;37.30;;
13303;SDS011;6720;51.958;4.540;2023-03-01T04:36:08;160.90;;;35.13;;
13303;SDS011;6720;51.958;4.540;2023-03-01T04:38:36;143.83;;;34.03;;
13303;SDS011;6720;51.958;4.540;2023-03-01T04:41:06;163.37;;;34.43;;
13303;SDS011;6720;51.958;4.540;2023-03-01T04:43:33;233.37;;;35.43;;
13303;SDS011;6720;51.958;4.540;2023-03-01T04:46:03;211.57;;;34.80;;
13303;SDS011;6720;51.958;4.540;2023-03-01T04:48:35;178.77;;;32.70;;
13303;SDS011;6720;51.958;4.540;2023-03-01T04:51:01;276.80;;;35.87;;
13303;SDS011;6720;51.958;4.540;2023-03-01T04:53:27;255.37;;;35.90;;
13303;SDS011;6720;51.958;4.540;2023-03-01T04:55:56;249.73;;;34.93;;
13303;SDS011;6720;51.958;4.540;2023-03-01T04:58:22;208.07;;;33.93;;
13303;SDS011;6720;51.958;4.540;2023-03-01T05:00:49;532.07;;;51.97;;
13303;SDS011;6720;51.958;4.540;2023-03-01T05:03:14;477.70;;;47.73;;
13303;SDS011;6720;51.958;4.540;2023-03-01T05:05:43;345.03;;;41.20;;
13303;SDS011;6720;51.958;4.540;2023-03-01T05:08:10;224.37;;;33.33;;
13303;SDS011;6720;51.958;4.540;2023-03-01T05:10:42;131.40;;;31.93;;
13303;SDS011;6720;51.958;4.540;2023-03-01T05:13:09;225.80;;;34.87;;
13303;SDS011;6720;51.958;4.540;2023-03-01T05:15:34;176.30;;;33.77;;
13303;SDS011;6720;51.958;4.540;2023-03-01T05:18:01;156.40;;;33.10;;
13303;SDS011;6720;51.958;4.540;2023-03-01T05:20:27;119.83;;;30.40;;
13303;SDS011;6720;51.958;4.540;2023-03-01T05:22:55;77.77;;;29.93;;
13303;SDS011;6720;51.958;4.540;2023-03-01T05:25:23;81.10;;;29.57;;
13303;SDS011;6720;51.958;4.540;2023-03-01T05:27:48;115.83;;;30.17;;
13303;SDS011;6720;51.958;4.540;2023-03-01T05:30:14;139.43;;;33.70;;
13303;SDS011;6720;51.958;4.540;2023-03-01T05:32:44;76.00;;;29.00;;
13303;SDS011;6720;51.958;4.540;2023-03-01T05:35:12;96.40;;;28.47;;
13303;SDS011;6720;51.958;4.540;2023-03-01T05:37:46;60.10;;;28.50;;
13303;SDS011;6720;51.958;4.540;2023-03-01T05:40:13;60.50;;;28.37;;
13303;SDS011;6720;51.958;4.540;2023-03-01T05:43:14;46.47;;;28.53;;
13303;SDS011;6720;51.958;4.540;2023-03-01T05:45:32;40.00;;;26.57;;
13303;SDS011;6720;51.958;4.540;2023-03-01T05:47:58;42.40;;;28.03;;
13303;SDS011;6720;51.958;4.540;2023-03-01T05:50:24;38.43;;;27.70;;
13303;SDS011;6720;51.958;4.540;2023-03-01T05:53:02;35.27;;;26.97;;
13303;SDS011;6720;51.958;4.540;2023-03-01T05:55:31;35.80;;;26.50;;
13303;SDS011;6720;51.958;4.540;2023-03-01T05:58:00;32.30;;;25.97;;
13303;SDS011;6720;51.958;4.540;2023-03-01T06:00:28;37.23;;;27.43;;
13303;SDS011;6720;51.958;4.540;2023-03-01T06:02:55;38.67;;;28.03;;
13303;SDS011;6720;51.958;4.540;2023-03-01T06:05:21;38.50;;;27.43;;
13303;SDS011;6720;51.958;4.540;2023-03-01T06:07:47;36.93;;;26.90;;
13303;SDS011;6720;51.958;4.540;2023-03-01T06:10:13;38.07;;;27.30;;
13303;SDS011;6720;51.958;4.540;2023-03-01T06:12:39;38.47;;;26.07;;
13303;SDS011;6720;51.958;4.540;2023-03-01T06:15:06;36.63;;;27.17;;
13303;SDS011;6720;51.958;4.540;2023-03-01T06:17:35;36.13;;;26.53;;
13303;SDS011;6720;51.958;4.540;2023-03-01T06:20:03;35.73;;;28.07;;
13303;SDS011;6720;51.958;4.540;2023-03-01T06:22:35;35.13;;;26.77;;
13303;SDS011;6720;51.958;4.540;2023-03-01T06:25:00;34.60;;;26.27;;
13303;SDS011;6720;51.958;4.540;2023-03-01T06:27:26;33.10;;;25.37;;
13303;SDS011;6720;51.958;4.540;2023-03-01T06:29:51;33.20;;;25.80;;
13303;SDS011;6720;51.958;4.540;2023-03-01T06:32:17;32.47;;;25.53;;
13303;SDS011;6720;51.958;4.540;2023-03-01T06:34:42;32.67;;;24.67;;
13303;SDS011;6720;51.958;4.540;2023-03-01T06:37:08;31.47;;;24.27;;
13303;SDS011;6720;51.958;4.540;2023-03-01T06:39:33;32.37;;;25.30;;
13303;SDS011;6720;51.958;4.540;2023-03-01T06:41:59;34.67;;;25.63;;
13303;SDS011;6720;51.958;4.540;2023-03-01T06:44:25;33.47;;;24.47;;
13303;SDS011;6720;51.958;4.540;2023-03-01T06:46:50;33.20;;;24.23;;
13303;SDS011;6720;51.958;4.540;2023-03-01T06:49:16;30.43;;;23.57;;
13303;SDS011;6720;51.958;4.540;2023-03-01T06:51:43;30.20;;;24.27;;
13303;SDS011;6720;51.958;4.540;2023-03-01T06:54:09;28.17;;;22.47;;
13303;SDS011;6720;51.958;4.540;2023-03-01T06:56:35;31.57;;;24.17;;
13303;SDS011;6720;51.958;4.540;2023-03-01T06:59:01;31.50;;;23.77;;
13303;SDS011;6720;51.958;4.540;2023-03-01T07:01:27;29.70;;;23.43;;
13303;SDS011;6720;51.958;4.540;2023-03-01T07:03:54;30.30;;;24.20;;
13303;SDS011;6720;51.958;4.540;2023-03-01T07:06:19;27.87;;;23.03;;
13303;SDS011;6720;51.958;4.540;2023-03-01T07:08:45;31.10;;;23.97;;
13303;SDS011;6720;51.958;4.540;2023-03-01T07:11:11;28.03;;;23.83;;
13303;SDS011;6720;51.958;4.540;2023-03-01T07:13:36;29.53;;;24.43;;
13303;SDS011;6720;51.958;4.540;2023-03-01T07:16:01;30.67;;;24.93;;
13303;SDS011;6720;51.958;4.540;2023-03-01T07:18:27;30.23;;;23.83;;
13303;SDS011;6720;51.958;4.540;2023-03-01T07:20:52;29.53;;;24.80;;
13303;SDS011;6720;51.958;4.540;2023-03-01T07:23:18;28.57;;;23.13;;
13303;SDS011;6720;51.958;4.540;2023-03-01T07:25:43;28.57;;;23.80;;
13303;SDS011;6720;51.958;4.540;2023-03-01T07:28:09;27.97;;;23.70;;
13303;SDS011;6720;51.958;4.540;2023-03-01T07:30:34;28.73;;;23.63;;
13303;SDS011;6720;51.958;4.540;2023-03-01T07:32:59;26.43;;;22.83;;
13303;SDS011;6720;51.958;4.540;2023-03-01T07:35:26;27.30;;;22.87;;
13303;SDS011;6720;51.958;4.540;2023-03-01T07:37:52;24.63;;;21.13;;
13303;SDS011;6720;51.958;4.540;2023-03-01T07:40:17;23.90;;;21.30;;
13303;SDS011;6720;51.958;4.540;2023-03-01T07:42:43;24.40;;;21.53;;
13303;SDS011;6720;51.958;4.540;2023-03-01T07:45:08;24.37;;;21.70;;
13303;SDS011;6720;51.958;4.540;2023-03-01T07:47:35;27.13;;;23.43;;
13303;SDS011;6720;51.958;4.540;2023-03-01T07:50:00;27.27;;;23.03;;
13303;SDS011;6720;51.958;4.540;2023-03-01T07:52:29;27.30;;;23.50;;
13303;SDS011;6720;51.958;4.540;2023-03-01T07:54:54;27.77;;;23.80;;
13303;SDS011;6720;51.958;4.540;2023-03-01T07:57:20;28.60;;;24.80;;
13303;SDS011;6720;51.958;4.540;2023-03-01T07:59:45;27.87;;;23.43;;
13303;SDS011;6720;51.958;4.540;2023-03-01T08:02:11;30.13;;;24.80;;
13303;SDS011;6720;51.958;4.540;2023-03-01T08:04:36;29.30;;;24.03;;
13303;SDS011;6720;51.958;4.540;2023-03-01T08:07:04;29.07;;;25.20;;
13303;SDS011;6720;51.958;4.540;2023-03-01T08:09:30;30.50;;;24.60;;
13303;SDS011;6720;51.958;4.540;2023-03-01T08:11:56;31.20;;;25.77;;
13303;SDS011;6720;51.958;4.540;2023-03-01T08:14:24;34.57;;;25.07;;
13303;SDS011;6720;51.958;4.540;2023-03-01T08:16:50;29.47;;;24.40;;
13303;SDS011;6720;51.958;4.540;2023-03-01T08:19:16;30.40;;;24.90;;
13303;SDS011;6720;51.958;4.540;2023-03-01T08:21:42;29.60;;;24.13;;
13303;SDS011;6720;51.958;4.540;2023-03-01T08:24:07;29.70;;;23.03;;
13303;SDS011;6720;51.958;4.540;2023-03-01T08:26:35;27.57;;;22.50;;
13303;SDS011;6720;51.958;4.540;2023-03-01T08:29:03;29.27;;;21.83;;
13303;SDS011;6720;51.958;4.540;2023-03-01T08:31:32;28.93;;;23.20;;
13303;SDS011;6720;51.958;4.540;2023-03-01T08:34:04;25.67;;;20.60;;
13303;SDS011;6720;51.958;4.540;2023-03-01T08:36:36;24.90;;;19.97;;
13303;SDS011;6720;51.958;4.540;2023-03-01T08:39:06;23.43;;;20.23;;
13303;SDS011;6720;51.958;4.540;2023-03-01T08:41:34;22.70;;;18.53;;
13303;SDS011;6720;51.958;4.540;2023-03-01T08:44:00;19.53;;;15.73;;
13303;SDS011;6720;51.958;4.540;2023-03-01T08:46:29;20.67;;;17.87;;
13303;SDS011;6720;51.958;4.540;2023-03-01T08:48:57;21.13;;;17.70;;
13303;SDS011;6720;51.958;4.540;2023-03-01T08:51:23;17.50;;;14.77;;
13303;SDS011;6720;51.958;4.540;2023-03-01T08:53:50;15.30;;;13.00;;
13303;SDS011;6720;51.958;4.540;2023-03-01T08:56:15;14.63;;;12.97;;
13303;SDS011;6720;51.958;4.540;2023-03-01T08:58:43;16.60;;;13.33;;
13303;SDS011;6720;51.958;4.540;2023-03-01T09:01:10;16.10;;;13.50;;
13303;SDS011;6720;51.958;4.540;2023-03-01T09:03:37;14.40;;;11.77;;
13303;SDS011;6720;51.958;4.540;2023-03-01T09:06:04;14.67;;;12.33;;
13303;SDS011;6720;51.958;4.540;2023-03-01T09:08:36;14.00;;;12.17;;
13303;SDS011;6720;51.958;4.540;2023-03-01T09:11:04;12.57;;;10.60;;
13303;SDS011;6720;51.958;4.540;2023-03-01T09:13:30;12.40;;;10.27;;
13303;SDS011;6720;51.958;4.540;2023-03-01T09:15:59;11.20;;;10.00;;
13303;SDS011;6720;51.958;4.540;2023-03-01T09:18:26;12.23;;;9.33;;
13303;SDS011;6720;51.958;4.540;2023-03-01T09:20:52;10.57;;;9.23;;
13303;SDS011;6720;51.958;4.540;2023-03-01T09:23:20;9.33;;;8.20;;
13303;SDS011;6720;51.958;4.540;2023-03-01T09:25:46;11.13;;;9.23;;
13303;SDS011;6720;51.958;4.540;2023-03-01T09:28:11;10.93;;;8.80;;
13303;SDS011;6720;51.958;4.540;2023-03-01T09:30:37;12.43;;;9.80;;
13303;SDS011;6720;51.958;4.540;2023-03-01T09:33:02;9.63;;;8.03;;
13303;SDS011;6720;51.958;4.540;2023-03-01T09:35:27;9.70;;;8.47;;
13303;SDS011;6720;51.958;4.540;2023-03-01T09:37:53;10.13;;;9.07;;
13303;SDS011;6720;51.958;4.540;2023-03-01T09:40:20;10.40;;;9.30;;
13303;SDS011;6720;51.958;4.540;2023-03-01T09:45:35;10.97;;;8.60;;
13303;SDS011;6720;51.958;4.540;2023-03-01T09:48:05;10.17;;;8.37;;
13303;SDS011;6720;51.958;4.540;2023-03-01T09:50:39;8.20;;;7.27;;
13303;SDS011;6720;51.958;4.540;2023-03-01T09:53:13;8.57;;;7.60;;
13303;SDS011;6720;51.958;4.540;2023-03-01T09:55:45;8.20;;;7.40;;
13303;SDS011;6720;51.958;4.540;2023-03-01T09:58:30;10.30;;;7.17;;
13303;SDS011;6720;51.958;4.540;2023-03-01T10:00:57;9.17;;;8.00;;
13303;SDS011;6720;51.958;4.540;2023-03-01T10:03:30;8.90;;;8.07;;
13303;SDS011;6720;51.958;4.540;2023-03-01T10:06:16;8.67;;;7.60;;
13303;SDS011;6720;51.958;4.540;2023-03-01T10:08:56;8.77;;;7.87;;
13303;SDS011;6720;51.958;4.540;2023-03-01T10:11:38;9.83;;;7.93;;
13303;SDS011;6720;51.958;4.540;2023-03-01T10:16:55;9.13;;;7.97;;
13303;SDS011;6720;51.958;4.540;2023-03-01T10:19:42;8.50;;;7.57;;
13303;SDS011;6720;51.958;4.540;2023-03-01T10:22:15;8.60;;;7.80;;
13303;SDS011;6720;51.958;4.540;2023-03-01T10:24:46;9.37;;;7.87;;
13303;SDS011;6720;51.958;4.540;2023-03-01T10:32:21;8.90;;;7.20;;
13303;SDS011;6720;51.958;4.540;2023-03-01T10:34:48;9.53;;;8.47;;
13303;SDS011;6720;51.958;4.540;2023-03-01T10:37:15;8.53;;;7.63;;
13303;SDS011;6720;51.958;4.540;2023-03-01T10:40:01;8.80;;;8.00;;
13303;SDS011;6720;51.958;4.540;2023-03-01T10:42:35;9.33;;;8.00;;
13303;SDS011;6720;51.958;4.540;2023-03-01T10:45:27;10.20;;;9.20;;
13303;SDS011;6720;51.958;4.540;2023-03-01T10:50:28;9.30;;;8.50;;
13303;SDS011;6720;51.958;4.540;2023-03-01T10:52:58;9.90;;;8.97;;
13303;SDS011;6720;51.958;4.540;2023-03-01T10:58:08;10.20;;;9.00;;
13303;SDS011;6720;51.958;4.540;2023-03-01T11:00:45;10.37;;;9.37;;
13303;SDS011;6720;51.958;4.540;2023-03-01T11:03:12;12.23;;;10.93;;
13303;SDS011;6720;51.958;4.540;2023-03-01T11:16:57;11.90;;;9.73;;
13303;SDS011;6720;51.958;4.540;2023-03-01T11:19:24;9.00;;;8.10;;
13303;SDS011;6720;51.958;4.540;2023-03-01T11:21:52;9.40;;;8.60;;
13303;SDS011;6720;51.958;4.540;2023-03-01T11:24:26;9.20;;;8.30;;
13303;SDS011;6720;51.958;4.540;2023-03-01T11:27:06;10.13;;;9.13;;
13303;SDS011;6720;51.958;4.540;2023-03-01T11:29:46;10.87;;;9.77;;
13303;SDS011;6720;51.958;4.540;2023-03-01T11:32:33;10.37;;;9.27;;
13303;SDS011;6720;51.958;4.540;2023-03-01T11:35:13;10.17;;;9.17;;
13303;SDS011;6720;51.958;4.540;2023-03-01T11:40:25;11.17;;;9.77;;
13303;SDS011;6720;51.958;4.540;2023-03-01T11:43:09;11.57;;;10.37;;
13303;SDS011;6720;51.958;4.540;2023-03-01T11:46:12;11.07;;;9.97;;
13303;SDS011;6720;51.958;4.540;2023-03-01T11:51:38;10.33;;;8.90;;
13303;SDS011;6720;51.958;4.540;2023-03-01T11:57:00;9.60;;;8.67;;
13303;SDS011;6720;51.958;4.540;2023-03-01T12:02:40;9.27;;;8.37;;
13303;SDS011;6720;51.958;4.540;2023-03-01T12:05:16;9.03;;;8.13;;
13303;SDS011;6720;51.958;4.540;2023-03-01T12:11:01;8.97;;;8.07;;
13303;SDS011;6720;51.958;4.540;2023-03-01T12:25:04;8.50;;;7.70;;
13303;SDS011;6720;51.958;4.540;2023-03-01T12:36:22;8.63;;;7.53;;
13303;SDS011;6720;51.958;4.540;2023-03-01T12:39:15;8.47;;;7.60;;
13303;SDS011;6720;51.958;4.540;2023-03-01T12:50:21;12.80;;;9.80;;
13303;SDS011;6720;51.958;4.540;2023-03-01T12:52:57;7.67;;;6.97;;
13303;SDS011;6720;51.958;4.540;2023-03-01T12:55:36;9.97;;;8.43;;
13303;SDS011;6720;51.958;4.540;2023-03-01T12:58:11;8.07;;;7.03;;
13303;SDS011;6720;51.958;4.540;2023-03-01T13:03:55;7.17;;;6.50;;
13303;SDS011;6720;51.958;4.540;2023-03-01T13:07:02;8.27;;;7.47;;
13303;SDS011;6720;51.958;4.540;2023-03-01T13:15:24;8.37;;;6.80;;
13303;SDS011;6720;51.958;4.540;2023-03-01T13:17:53;7.73;;;7.03;;
13303;SDS011;6720;51.958;4.540;2023-03-01T13:23:43;7.20;;;6.60;;
13303;SDS011;6720;51.958;4.540;2023-03-01T13:28:39;7.10;;;6.40;;
13303;SDS011;6720;51.958;4.540;2023-03-01T13:33:50;8.20;;;7.40;;
13303;SDS011;6720;51.958;4.540;2023-03-01T13:41:47;8.77;;;7.40;;
13303;SDS011;6720;51.958;4.540;2023-03-01T13:46:48;7.37;;;6.67;;
13303;SDS011;6720;51.958;4.540;2023-03-01T13:49:16;7.83;;;7.07;;
13303;SDS011;6720;51.958;4.540;2023-03-01T13:51:47;8.13;;;7.10;;
13303;SDS011;6720;51.958;4.540;2023-03-01T13:54:14;7.60;;;6.80;;
13303;SDS011;6720;51.958;4.540;2023-03-01T13:56:51;7.87;;;7.17;;
13303;SDS011;6720;51.958;4.540;2023-03-01T13:59:18;7.50;;;6.80;;
13303;SDS011;6720;51.958;4.540;2023-03-01T14:01:55;7.40;;;6.70;;
13303;SDS011;6720;51.958;4.540;2023-03-01T14:04:30;8.00;;;6.90;;
13303;SDS011;6720;51.958;4.540;2023-03-01T14:07:16;9.10;;;7.40;;
13303;SDS011;6720;51.958;4.540;2023-03-01T14:09:44;8.10;;;7.33;;
13303;SDS011;6720;51.958;4.540;2023-03-01T14:12:21;7.43;;;6.83;;
13303;SDS011;6720;51.958;4.540;2023-03-01T14:15:06;7.37;;;6.67;;
13303;SDS011;6720;51.958;4.540;2023-03-01T14:17:59;7.87;;;6.60;;
13303;SDS011;6720;51.958;4.540;2023-03-01T14:20:37;7.43;;;6.73;;
13303;SDS011;6720;51.958;4.540;2023-03-01T14:23:09;7.03;;;6.33;;
13303;SDS011;6720;51.958;4.540;2023-03-01T14:25:50;7.73;;;6.93;;
13303;SDS011;6720;51.958;4.540;2023-03-01T14:28:19;8.70;;;7.10;;
13303;SDS011;6720;51.958;4.540;2023-03-01T14:30:49;8.07;;;6.97;;
13303;SDS011;6720;51.958;4.540;2023-03-01T14:33:20;7.67;;;6.33;;
13303;SDS011;6720;51.958;4.540;2023-03-01T14:41:12;6.83;;;6.17;;
13303;SDS011;6720;51.958;4.540;2023-03-01T14:43:44;8.17;;;7.47;;
13303;SDS011;6720;51.958;4.540;2023-03-01T14:49:01;6.90;;;6.30;;
13303;SDS011;6720;51.958;4.540;2023-03-01T14:51:29;8.23;;;7.20;;
13303;SDS011;6720;51.958;4.540;2023-03-01T14:53:55;7.10;;;6.40;;
13303;SDS011;6720;51.958;4.540;2023-03-01T14:56:21;7.90;;;6.27;;
13303;SDS011;6720;51.958;4.540;2023-03-01T14:58:52;7.37;;;6.57;;
13303;SDS011;6720;51.958;4.540;2023-03-01T15:01:24;7.30;;;6.60;;
13303;SDS011;6720;51.958;4.540;2023-03-01T15:03:49;7.30;;;6.60;;
13303;SDS011;6720;51.958;4.540;2023-03-01T15:06:19;7.17;;;6.30;;
13303;SDS011;6720;51.958;4.540;2023-03-01T15:08:55;6.93;;;6.23;;
13303;SDS011;6720;51.958;4.540;2023-03-01T15:11:31;6.77;;;6.13;;
13303;SDS011;6720;51.958;4.540;2023-03-01T15:13:58;7.57;;;6.53;;
13303;SDS011;6720;51.958;4.540;2023-03-01T15:16:25;6.97;;;6.37;;
13303;SDS011;6720;51.958;4.540;2023-03-01T15:18:59;6.67;;;6.03;;
13303;SDS011;6720;51.958;4.540;2023-03-01T15:26:50;6.73;;;5.83;;
13303;SDS011;6720;51.958;4.540;2023-03-01T15:29:20;6.80;;;6.10;;
13303;SDS011;6720;51.958;4.540;2023-03-01T15:31:54;6.87;;;6.27;;
13303;SDS011;6720;51.958;4.540;2023-03-01T15:34:23;6.30;;;5.67;;
13303;SDS011;6720;51.958;4.540;2023-03-01T15:36:50;6.40;;;5.90;;
13303;SDS011;6720;51.958;4.540;2023-03-01T15:39:26;6.70;;;6.10;;
13303;SDS011;6720;51.958;4.540;2023-03-01T15:41:55;7.23;;;6.03;;
13303;SDS011;6720;51.958;4.540;2023-03-01T15:44:27;6.40;;;5.80;;
13303;SDS011;6720;51.958;4.540;2023-03-01T15:46:55;7.80;;;6.17;;
13303;SDS011;6720;51.958;4.540;2023-03-01T15:52:10;7.23;;;5.80;;
13303;SDS011;6720;51.958;4.540;2023-03-01T15:54:43;5.70;;;5.20;;
13303;SDS011;6720;51.958;4.540;2023-03-01T15:57:13;6.20;;;5.70;;
13303;SDS011;6720;51.958;4.540;2023-03-01T15:59:41;7.17;;;6.50;;
13303;SDS011;6720;51.958;4.540;2023-03-01T16:02:12;6.27;;;5.70;;
13303;SDS011;6720;51.958;4.540;2023-03-01T16:04:38;6.43;;;5.83;;
13303;SDS011;6720;51.958;4.540;2023-03-01T16:07:04;7.23;;;5.90;;
13303;SDS011;6720;51.958;4.540;2023-03-01T16:09:30;5.97;;;5.33;;
13303;SDS011;6720;51.958;4.540;2023-03-01T16:11:55;6.97;;;6.27;;
13303;SDS011;6720;51.958;4.540;2023-03-01T16:14:21;6.20;;;5.60;;
13303;SDS011;6720;51.958;4.540;2023-03-01T16:16:47;6.17;;;5.57;;
13303;SDS011;6720;51.958;4.540;2023-03-01T16:19:16;7.27;;;5.70;;
13303;SDS011;6720;51.958;4.540;2023-03-01T16:21:42;7.00;;;6.30;;
13303;SDS011;6720;51.958;4.540;2023-03-01T16:24:08;7.00;;;6.30;;
13303;SDS011;6720;51.958;4.540;2023-03-01T16:26:34;7.67;;;5.97;;
13303;SDS011;6720;51.958;4.540;2023-03-01T16:29:01;7.63;;;6.83;;
13303;SDS011;6720;51.958;4.540;2023-03-01T16:31:26;7.20;;;6.50;;
13303;SDS011;6720;51.958;4.540;2023-03-01T16:33:54;7.53;;;6.20;;
13303;SDS011;6720;51.958;4.540;2023-03-01T16:36:21;7.30;;;6.57;;
13303;SDS011;6720;51.958;4.540;2023-03-01T16:38:51;8.20;;;6.17;;
13303;SDS011;6720;51.958;4.540;2023-03-01T16:41:18;8.33;;;6.90;;
13303;SDS011;6720;51.958;4.540;2023-03-01T16:43:45;7.33;;;6.63;;
13303;SDS011;6720;51.958;4.540;2023-03-01T16:46:14;8.77;;;6.50;;
13303;SDS011;6720;51.958;4.540;2023-03-01T16:48:53;7.33;;;6.23;;
13303;SDS011;6720;51.958;4.540;2023-03-01T16:51:19;9.67;;;6.57;;
13303;SDS011;6720;51.958;4.540;2023-03-01T16:53:45;8.77;;;7.17;;
13303;SDS011;6720;51.958;4.540;2023-03-01T16:56:12;7.10;;;6.40;;
13303;SDS011;6720;51.958;4.540;2023-03-01T16:58:38;8.27;;;6.93;;
13303;SDS011;6720;51.958;4.540;2023-03-01T17:01:06;7.93;;;6.90;;
13303;SDS011;6720;51.958;4.540;2023-03-01T17:03:33;10.07;;;7.60;;
13303;SDS011;6720;51.958;4.540;2023-03-01T17:06:03;7.57;;;6.50;;
13303;SDS011;6720;51.958;4.540;2023-03-01T17:08:30;7.57;;;6.77;;